TimePDT,TemperatureF,Dew PointF,Humidity,Sea Level PressureIn,VisibilityMPH,Wind Direction,Wind SpeedMPH,Gust SpeedMPH,PrecipitationIn,Events,Conditions,WindDirDegrees,DateUTC
12:56 AM,70.0,54.0,57,29.81,10.0,Calm,Calm,-,N/A,,Clear,0,2013-07-20 07:56:00
1:56 AM,64.9,55.0,70,29.81,10.0,Calm,Calm,-,N/A,,Clear,0,2013-07-20 08:56:00
2:56 AM,64.0,54.0,70,29.80,10.0,Calm,Calm,-,N/A,,Clear,0,2013-07-20 09:56:00
3:56 AM,64.0,53.1,67,29.80,10.0,Calm,Calm,-,N/A,,Clear,0,2013-07-20 10:56:00
4:56 AM,63.0,53.1,70,29.79,10.0,Calm,Calm,-,N/A,,Clear,0,2013-07-20 11:56:00
5:56 AM,61.0,52.0,72,29.79,10.0,Calm,Calm,-,N/A,,Clear,0,2013-07-20 12:56:00
6:56 AM,61.0,53.1,75,29.80,10.0,Calm,Calm,-,N/A,,Clear,0,2013-07-20 13:56:00
7:56 AM,66.9,54.0,63,29.81,10.0,Calm,Calm,-,N/A,,Clear,0,2013-07-20 14:56:00
8:56 AM,72.0,55.0,55,29.81,10.0,Calm,Calm,-,N/A,,Clear,0,2013-07-20 15:56:00
9:56 AM,80.1,54.0,40,29.80,10.0,Calm,Calm,-,N/A,,Clear,0,2013-07-20 16:56:00
10:56 AM,84.9,55.0,36,29.78,10.0,ESE,3.5,-,N/A,,Clear,120,2013-07-20 17:56:00
11:56 AM,91.9,55.0,29,29.76,10.0,East,4.6,-,N/A,,Clear,80,2013-07-20 18:56:00
12:56 PM,98.1,53.1,22,29.74,10.0,Calm,Calm,-,N/A,,Clear,0,2013-07-20 19:56:00
1:56 PM,102.0,53.1,19,29.71,10.0,East,3.5,-,N/A,,Clear,100,2013-07-20 20:56:00
2:56 PM,106.0,55.0,19,29.69,10.0,NW,5.8,-,N/A,,Clear,310,2013-07-20 21:56:00
3:56 PM,107.1,46.0,13,29.68,10.0,NW,9.2,-,N/A,,Clear,320,2013-07-20 22:56:00
4:56 PM,105.1,46.9,14,29.66,10.0,NW,5.8,-,N/A,,Clear,310,2013-07-20 23:56:00
5:56 PM,102.9,46.0,15,29.66,10.0,Variable,3.5,-,N/A,,Clear,0,2013-07-21 00:56:00
6:56 PM,100.0,46.9,16,29.66,10.0,North,6.9,-,N/A,,Clear,360,2013-07-21 01:56:00
7:56 PM,93.0,51.1,24,29.67,10.0,Calm,Calm,-,N/A,,Clear,0,2013-07-21 02:56:00
8:56 PM,84.9,55.0,36,29.69,10.0,SSE,4.6,-,N/A,,Clear,160,2013-07-21 03:56:00
9:56 PM,82.0,55.9,41,29.70,10.0,South,5.8,-,N/A,,Clear,170,2013-07-21 04:56:00
10:56 PM,77.0,55.0,47,29.72,10.0,SSE,6.9,-,N/A,,Clear,160,2013-07-21 05:56:00
11:56 PM,73.9,53.1,48,29.72,10.0,SSE,5.8,-,N/A,,Clear,150,2013-07-21 06:56:00